Eurocargo Venezia — IBKS — position and weather

sailwx.info

Track history (hours):
 
Tides and Currents Weather Stations Pressure Air Temp Water Temp Dewpoint Dewpoint Depression Visibility Wind Speed Wind Dir Waves Ship Positions

Eurocargo Venezia

Last reported at 2014-Jul-24 12:32 UTC. Time now 2014-Jul-24 13:02 UTC.
Position N 43°35' E 010°18'.

Length 200 m; draft 7.5 m.

Type: Ship (hazmat cat A). MMSI: 247297200.

Date/timePositionNaut miles runAvg speedWind from/ knotsBaromVisibWave heightAir tempDewpointWater temp
2014-Jul-24 12:32N 43°35' E 010°18'0 0.0
2014-Jul-24 11:32N 43°35' E 010°18'0 0.0
2014-Jul-24 10:32N 43°35' E 010°18'0 0.0
2014-Jul-24 09:32N 43°35' E 010°18'0 0.0
2014-Jul-24 08:32N 43°35' E 010°18'0 0.0
2014-Jul-24 07:32N 43°35' E 010°18'1 0.7
2014-Jul-24 06:33N 43°34' E 010°18'7 7.0
2014-Jul-24 05:33N 43°29' E 010°11'1817.5
2014-Jul-24 04:33N 43°37' E 009°50'1818.1
2014-Jul-24 03:33N 43°50' E 009°33'1818.3
2014-Jul-24 02:33N 44°04' E 009°16'1818.4
2014-Jul-24 01:33N 44°18' E 008°60'8 7.6
2014-Jul-24 00:32N 44°24' E 008°53'0 0.0
2014-Jul-23 23:32N 44°24' E 008°53'0 0.0
2014-Jul-23 22:32N 44°24' E 008°53'0 0.0
2014-Jul-23 21:32N 44°24' E 008°53'0 0.0
2014-Jul-23 20:32N 44°24' E 008°53'0 0.0
2014-Jul-23 19:32N 44°24' E 008°53'0 0.0
2014-Jul-23 18:32N 44°24' E 008°53'0 0.0
2014-Jul-23 17:32N 44°24' E 008°53'3 2.8
2014-Jul-23 16:33N 44°23' E 008°57'1716.9
2014-Jul-23 15:33N 44°10' E 009°11'1919.1
2014-Jul-23 14:34N 43°55' E 009°28'1919.3
2014-Jul-23 13:34N 43°40' E 009°45'1919.0
2014-Jul-23 12:33N 43°27' E 010°04'1918.8
2014-Jul-23 11:33N 43°10' E 010°16'1919.0
2014-Jul-23 10:34N 42°54' E 010°29'2218.7
2014-Jul-23 09:23N 42°36' E 010°45'41512.2
2014-Jul-21 23:25N 36°33' E 015°07'1719.1
2014-Jul-21 22:33N 36°20' E 014°55'1919.0
2014-Jul-21 21:33N 36°04' E 014°42'1414.2
2014-Jul-21 20:33N 35°53' E 014°31'0 0.1
2014-Jul-21 20:18N 35°53' E 014°31'0 0.0
2014-Jul-21 19:33N 35°53' E 014°31'0 0.0
2014-Jul-21 18:09N 35°53' E 014°31'0 0.0
2014-Jul-21 17:33N 35°53' E 014°31'0 0.0
2014-Jul-21 16:33N 35°53' E 014°31'0 0.0
2014-Jul-21 15:33N 35°53' E 014°31'0 0.0
2014-Jul-21 14:09N 35°53' E 014°31'0 0.0
2014-Jul-21 12:31N 35°53' E 014°31'0 0.1
2014-Jul-21 11:33N 35°53' E 014°31'8 7.6
2014-Jul-21 10:33N 35°59' E 014°36'2019.6
2014-Jul-21 09:33N 36°15' E 014°51'2119.3
2014-Jul-21 08:29N 36°32' E 015°05'14910.7
2014-Jul-20 18:33N 39°01' E 014°52'1818.3
2014-Jul-20 17:33N 39°15' E 014°36'1818.3
2014-Jul-20 16:34N 39°29' E 014°21'1818.4
2014-Jul-20 15:34N 39°43' E 014°06'1818.1
2014-Jul-20 14:34N 39°57' E 013°50'1818.3
2014-Jul-20 13:33N 40°11' E 013°34'1818.0
2014-Jul-20 12:34N 40°24' E 013°19'2019.6
2014-Jul-20 11:33N 40°40' E 013°03'1919.0
2014-Jul-20 10:33N 40°54' E 012°47'1918.6
2014-Jul-20 09:33N 41°08' E 012°31'1918.7
2014-Jul-20 08:33N 41°23' E 012°15'2118.9
2014-Jul-20 07:27N 41°39' E 011°58'5618.4
2014-Jul-20 04:24N 42°21' E 011°07'1618.3
2014-Jul-20 03:30N 42°32' E 010°51'1818.5
2014-Jul-20 02:31N 42°46' E 010°35'1818.9
2014-Jul-20 01:34N 43°02' E 010°23'1918.5
2014-Jul-20 00:34N 43°18' E 010°10'1918.7
2014-Jul-19 23:34N 43°33' E 009°55'1818.4
2014-Jul-19 22:34N 43°47' E 009°37'1919.0
2014-Jul-19 21:34N 44°01' E 009°20'1919.0
2014-Jul-19 20:34N 44°15' E 009°03'1111.3
2014-Jul-19 19:33N 44°24' E 008°53'0 0.0
2014-Jul-19 18:33N 44°24' E 008°53'0 0.0
2014-Jul-19 17:33N 44°24' E 008°53'0 0.0
2014-Jul-19 16:33N 44°24' E 008°53'0 0.0
2014-Jul-19 15:33N 44°24' E 008°53'0 0.0
2014-Jul-19 14:33N 44°24' E 008°53'0 0.0
2014-Jul-19 13:33N 44°24' E 008°53'0 0.0
2014-Jul-19 12:33N 44°24' E 008°53'0 0.0
2014-Jul-19 11:33N 44°24' E 008°53'0 0.0
2014-Jul-19 10:30N 44°24' E 008°53'0 0.0
2014-Jul-19 09:33N 44°24' E 008°53'0 0.0
2014-Jul-19 08:30N 44°24' E 008°53'0 0.0
2014-Jul-19 07:33N 44°24' E 008°53'0 0.1
2014-Jul-19 06:34N 44°24' E 008°53'5 5.4
2014-Jul-19 05:34N 44°21' E 008°59'1413.5
2014-Jul-19 04:33N 44°10' E 009°11'1919.1
2014-Jul-19 03:33N 43°56' E 009°28'1919.2
2014-Jul-19 02:33N 43°41' E 009°45'2019.6
2014-Jul-19 01:33N 43°27' E 010°04'1919.3
2014-Jul-19 00:33N 43°10' E 010°17'2019.7
2014-Jul-18 23:33N 42°53' E 010°30'1919.0
2014-Jul-18 22:33N 42°37' E 010°44'1919.3
2014-Jul-18 21:33N 42°23' E 011°03'5819.0
2014-Jul-18 18:29N 41°41' E 011°56'1819.1
2014-Jul-18 17:32N 41°26' E 012°12'1919.2
2014-Jul-18 16:33N 41°12' E 012°28'2819.5
2014-Jul-18 15:06N 40°50' E 012°51'1119.4
2014-Jul-18 14:33N 40°42' E 013°00'2019.5
2014-Jul-18 13:33N 40°27' E 013°17'1919.3
2014-Jul-18 12:33N 40°12' E 013°33'1919.3
2014-Jul-18 11:33N 39°58' E 013°50'2019.6
2014-Jul-18 10:33N 39°43' E 014°06'2019.6
2014-Jul-18 09:33N 39°28' E 014°23'206 9.6
2014-Jul-17 12:04N 36°03' E 014°40'1018.9
2014-Jul-17 11:34N 35°55' E 014°33'3 1.7
2014-Jul-17 10:03N 35°53' E 014°31'0 0.0
2014-Jul-17 09:27N 35°53' E 014°31'0 0.0
2014-Jul-17 08:03N 35°53' E 014°31'0 0.0
2014-Jul-17 03:05N 35°53' E 014°31'2 1.4
2014-Jul-17 01:26N 35°55' E 014°32'1415.8
2014-Jul-17 00:34N 36°06' E 014°42'1818.1
2014-Jul-16 23:34N 36°21' E 014°55'196 8.5
2014-Jul-16 00:32N 39°34' E 014°14'1818.2
2014-Jul-15 23:31N 39°48' E 013°59'1718.0
2014-Jul-15 22:33N 40°02' E 013°45'1818.1
2014-Jul-15 21:33N 40°15' E 013°28'2218.3
2014-Jul-15 20:21N 40°32' E 013°10'1418.2
2014-Jul-15 19:33N 40°43' E 012°58'1818.2
2014-Jul-15 18:34N 40°57' E 012°42'1818.2
2014-Jul-15 17:33N 41°11' E 012°27'1818.1
2014-Jul-15 16:33N 41°25' E 012°12'8018.1
2014-Jul-15 12:08N 42°25' E 011°00'1118.1
2014-Jul-15 11:32N 42°32' E 010°50'1717.6
2014-Jul-15 10:33N 42°46' E 010°36'1818.0
2014-Jul-15 09:33N 43°02' E 010°25'1818.1
2014-Jul-15 08:33N 43°19' E 010°16'1313.2
2014-Jul-15 07:33N 43°32' E 010°16'3 2.8
2014-Jul-15 06:33N 43°35' E 010°18'0 0.0
2014-Jul-15 05:33N 43°35' E 010°18'0 0.0
2014-Jul-15 04:33N 43°35' E 010°18'0 0.0
2014-Jul-15 03:34N 43°35' E 010°18'0 0.0
2014-Jul-15 02:30N 43°35' E 010°18'0 0.0
2014-Jul-15 01:33N 43°35' E 010°18'3 2.5
2014-Jul-15 00:34N 43°32' E 010°17'3 2.8
2014-Jul-14 23:33N 43°31' E 010°14'1514.7
2014-Jul-14 22:33N 43°33' E 009°54'2019.6
2014-Jul-14 21:34N 43°48' E 009°36'1919.4
2014-Jul-14 20:34N 44°03' E 009°19'1919.3
2014-Jul-14 19:33N 44°17' E 009°01'9 8.8
2014-Jul-14 18:32N 44°24' E 008°53'0 0.0
2014-Jul-14 17:32N 44°24' E 008°53'0 0.0
2014-Jul-14 16:32N 44°24' E 008°53'0 0.0
2014-Jul-14 15:32N 44°24' E 008°53'0 0.0
2014-Jul-14 14:32N 44°24' E 008°53'0 0.0
2014-Jul-14 13:32N 44°24' E 008°53'  
Track history (hours):
 
Tides and Currents Weather Stations Pressure Air Temp Water Temp Dewpoint Dewpoint Depression Visibility Wind Speed Wind Dir Waves Ship Positions

Eurocargo Venezia

Last reported at 2014-Jul-24 12:32 UTC. Time now 2014-Jul-24 13:02 UTC.
Position N 43°35' E 010°18'.

Length 200 m; draft 7.5 m.

Type: Ship (hazmat cat A). MMSI: 247297200.

Date/timePositionNaut miles runAvg speedWind from/ knotsBaromVisibWave heightAir tempDewpointWater temp
2014-Jul-24 12:32N 43°35' E 010°18'0 0.0
2014-Jul-24 11:32N 43°35' E 010°18'0 0.0
2014-Jul-24 10:32N 43°35' E 010°18'0 0.0
2014-Jul-24 09:32N 43°35' E 010°18'0 0.0
2014-Jul-24 08:32N 43°35' E 010°18'0 0.0
2014-Jul-24 07:32N 43°35' E 010°18'1 0.7
2014-Jul-24 06:33N 43°34' E 010°18'7 7.0
2014-Jul-24 05:33N 43°29' E 010°11'1817.5
2014-Jul-24 04:33N 43°37' E 009°50'1818.1
2014-Jul-24 03:33N 43°50' E 009°33'1818.3
2014-Jul-24 02:33N 44°04' E 009°16'1818.4
2014-Jul-24 01:33N 44°18' E 008°60'8 7.6
2014-Jul-24 00:32N 44°24' E 008°53'0 0.0
2014-Jul-23 23:32N 44°24' E 008°53'0 0.0
2014-Jul-23 22:32N 44°24' E 008°53'0 0.0
2014-Jul-23 21:32N 44°24' E 008°53'0 0.0
2014-Jul-23 20:32N 44°24' E 008°53'0 0.0
2014-Jul-23 19:32N 44°24' E 008°53'0 0.0
2014-Jul-23 18:32N 44°24' E 008°53'0 0.0
2014-Jul-23 17:32N 44°24' E 008°53'3 2.8
2014-Jul-23 16:33N 44°23' E 008°57'1716.9
2014-Jul-23 15:33N 44°10' E 009°11'1919.1
2014-Jul-23 14:34N 43°55' E 009°28'1919.3
2014-Jul-23 13:34N 43°40' E 009°45'1919.0
2014-Jul-23 12:33N 43°27' E 010°04'1918.8
2014-Jul-23 11:33N 43°10' E 010°16'1919.0
2014-Jul-23 10:34N 42°54' E 010°29'2218.7
2014-Jul-23 09:23N 42°36' E 010°45'41512.2
2014-Jul-21 23:25N 36°33' E 015°07'1719.1
2014-Jul-21 22:33N 36°20' E 014°55'1919.0
2014-Jul-21 21:33N 36°04' E 014°42'1414.2
2014-Jul-21 20:33N 35°53' E 014°31'0 0.1
2014-Jul-21 20:18N 35°53' E 014°31'0 0.0
2014-Jul-21 19:33N 35°53' E 014°31'0 0.0
2014-Jul-21 18:09N 35°53' E 014°31'0 0.0
2014-Jul-21 17:33N 35°53' E 014°31'0 0.0
2014-Jul-21 16:33N 35°53' E 014°31'0 0.0
2014-Jul-21 15:33N 35°53' E 014°31'0 0.0
2014-Jul-21 14:09N 35°53' E 014°31'0 0.0
2014-Jul-21 12:31N 35°53' E 014°31'0 0.1
2014-Jul-21 11:33N 35°53' E 014°31'8 7.6
2014-Jul-21 10:33N 35°59' E 014°36'2019.6
2014-Jul-21 09:33N 36°15' E 014°51'2119.3
2014-Jul-21 08:29N 36°32' E 015°05'14910.7
2014-Jul-20 18:33N 39°01' E 014°52'1818.3
2014-Jul-20 17:33N 39°15' E 014°36'1818.3
2014-Jul-20 16:34N 39°29' E 014°21'1818.4
2014-Jul-20 15:34N 39°43' E 014°06'1818.1
2014-Jul-20 14:34N 39°57' E 013°50'1818.3
2014-Jul-20 13:33N 40°11' E 013°34'1818.0
2014-Jul-20 12:34N 40°24' E 013°19'2019.6
2014-Jul-20 11:33N 40°40' E 013°03'1919.0
2014-Jul-20 10:33N 40°54' E 012°47'1918.6
2014-Jul-20 09:33N 41°08' E 012°31'1918.7
2014-Jul-20 08:33N 41°23' E 012°15'2118.9
2014-Jul-20 07:27N 41°39' E 011°58'5618.4
2014-Jul-20 04:24N 42°21' E 011°07'1618.3
2014-Jul-20 03:30N 42°32' E 010°51'1818.5
2014-Jul-20 02:31N 42°46' E 010°35'1818.9
2014-Jul-20 01:34N 43°02' E 010°23'1918.5
2014-Jul-20 00:34N 43°18' E 010°10'1918.7
2014-Jul-19 23:34N 43°33' E 009°55'1818.4
2014-Jul-19 22:34N 43°47' E 009°37'1919.0
2014-Jul-19 21:34N 44°01' E 009°20'1919.0
2014-Jul-19 20:34N 44°15' E 009°03'1111.3
2014-Jul-19 19:33N 44°24' E 008°53'0 0.0
2014-Jul-19 18:33N 44°24' E 008°53'0 0.0
2014-Jul-19 17:33N 44°24' E 008°53'0 0.0
2014-Jul-19 16:33N 44°24' E 008°53'0 0.0
2014-Jul-19 15:33N 44°24' E 008°53'0 0.0
2014-Jul-19 14:33N 44°24' E 008°53'0 0.0
2014-Jul-19 13:33N 44°24' E 008°53'0 0.0
2014-Jul-19 12:33N 44°24' E 008°53'0 0.0
2014-Jul-19 11:33N 44°24' E 008°53'0 0.0
2014-Jul-19 10:30N 44°24' E 008°53'0 0.0
2014-Jul-19 09:33N 44°24' E 008°53'0 0.0
2014-Jul-19 08:30N 44°24' E 008°53'0 0.0
2014-Jul-19 07:33N 44°24' E 008°53'0 0.1
2014-Jul-19 06:34N 44°24' E 008°53'5 5.4
2014-Jul-19 05:34N 44°21' E 008°59'1413.5
2014-Jul-19 04:33N 44°10' E 009°11'1919.1
2014-Jul-19 03:33N 43°56' E 009°28'1919.2
2014-Jul-19 02:33N 43°41' E 009°45'2019.6
2014-Jul-19 01:33N 43°27' E 010°04'1919.3
2014-Jul-19 00:33N 43°10' E 010°17'2019.7
2014-Jul-18 23:33N 42°53' E 010°30'1919.0
2014-Jul-18 22:33N 42°37' E 010°44'1919.3
2014-Jul-18 21:33N 42°23' E 011°03'5819.0
2014-Jul-18 18:29N 41°41' E 011°56'1819.1
2014-Jul-18 17:32N 41°26' E 012°12'1919.2
2014-Jul-18 16:33N 41°12' E 012°28'2819.5
2014-Jul-18 15:06N 40°50' E 012°51'1119.4
2014-Jul-18 14:33N 40°42' E 013°00'2019.5
2014-Jul-18 13:33N 40°27' E 013°17'1919.3
2014-Jul-18 12:33N 40°12' E 013°33'1919.3
2014-Jul-18 11:33N 39°58' E 013°50'2019.6
2014-Jul-18 10:33N 39°43' E 014°06'2019.6
2014-Jul-18 09:33N 39°28' E 014°23'206 9.6
2014-Jul-17 12:04N 36°03' E 014°40'1018.9
2014-Jul-17 11:34N 35°55' E 014°33'3 1.7
2014-Jul-17 10:03N 35°53' E 014°31'0 0.0
2014-Jul-17 09:27N 35°53' E 014°31'0 0.0
2014-Jul-17 08:03N 35°53' E 014°31'0 0.0
2014-Jul-17 03:05N 35°53' E 014°31'2 1.4
2014-Jul-17 01:26N 35°55' E 014°32'1415.8
2014-Jul-17 00:34N 36°06' E 014°42'1818.1
2014-Jul-16 23:34N 36°21' E 014°55'196 8.5
2014-Jul-16 00:32N 39°34' E 014°14'1818.2
2014-Jul-15 23:31N 39°48' E 013°59'1718.0
2014-Jul-15 22:33N 40°02' E 013°45'1818.1
2014-Jul-15 21:33N 40°15' E 013°28'2218.3
2014-Jul-15 20:21N 40°32' E 013°10'1418.2
2014-Jul-15 19:33N 40°43' E 012°58'1818.2
2014-Jul-15 18:34N 40°57' E 012°42'1818.2
2014-Jul-15 17:33N 41°11' E 012°27'1818.1
2014-Jul-15 16:33N 41°25' E 012°12'8018.1
2014-Jul-15 12:08N 42°25' E 011°00'1118.1
2014-Jul-15 11:32N 42°32' E 010°50'1717.6
2014-Jul-15 10:33N 42°46' E 010°36'1818.0
2014-Jul-15 09:33N 43°02' E 010°25'1818.1
2014-Jul-15 08:33N 43°19' E 010°16'1313.2
2014-Jul-15 07:33N 43°32' E 010°16'3 2.8
2014-Jul-15 06:33N 43°35' E 010°18'0 0.0
2014-Jul-15 05:33N 43°35' E 010°18'0 0.0
2014-Jul-15 04:33N 43°35' E 010°18'0 0.0
2014-Jul-15 03:34N 43°35' E 010°18'0 0.0
2014-Jul-15 02:30N 43°35' E 010°18'0 0.0
2014-Jul-15 01:33N 43°35' E 010°18'3 2.5
2014-Jul-15 00:34N 43°32' E 010°17'3 2.8
2014-Jul-14 23:33N 43°31' E 010°14'1514.7
2014-Jul-14 22:33N 43°33' E 009°54'2019.6
2014-Jul-14 21:34N 43°48' E 009°36'1919.4
2014-Jul-14 20:34N 44°03' E 009°19'1919.3
2014-Jul-14 19:33N 44°17' E 009°01'9 8.8
2014-Jul-14 18:32N 44°24' E 008°53'0 0.0
2014-Jul-14 17:32N 44°24' E 008°53'0 0.0
2014-Jul-14 16:32N 44°24' E 008°53'0 0.0
2014-Jul-14 15:32N 44°24' E 008°53'0 0.0
2014-Jul-14 14:32N 44°24' E 008°53'0 0.0
2014-Jul-14 13:32N 44°24' E 008°53'  

Dump ship's entire track history